SAS66J EETN-ENTC
Flight info
| Callsign | SAS66J |
|---|---|
| Flight time | 1h 55m |
| Altitude | 38000 |
| Route | MOHNI DCT RIXEM DCT MANKI |
| Aircraft | E195/M-SDE3GILORVW/S |
Departure
| Time | 2026-04-27 08:08 |
|---|---|
| Airport | Lennart Meri Tallinn Airport (EETN) |
Arrival
| Time | 2026-04-27 10:04 |
|---|---|
| Airport | Tromsø Airport (ENTC) |
| Time | Latitude | Longitude | Altitude | Speed | Heading |
|---|---|---|---|---|---|
| 2026-04-27 07:30 | 59.41585 | 24.80277 | 160 ft | 0 kts | 1° |
| 2026-04-27 07:56 | 59.41568 | 24.80276 | 160 ft | 4 kts | 9° |
| 2026-04-27 07:56 | 59.41543 | 24.80261 | 160 ft | 4 kts | 37° |
| 2026-04-27 07:56 | 59.41528 | 24.80225 | 160 ft | 3 kts | 88° |
| 2026-04-27 07:56 | 59.41528 | 24.80219 | 160 ft | 0 kts | 90° |
| 2026-04-27 08:01 | 59.41528 | 24.80224 | 160 ft | 2 kts | 90° |
| 2026-04-27 08:02 | 59.41528 | 24.80268 | 160 ft | 5 kts | 90° |
| 2026-04-27 08:02 | 59.41528 | 24.80360 | 160 ft | 8 kts | 90° |
| 2026-04-27 08:02 | 59.41519 | 24.80480 | 160 ft | 11 kts | 104° |
| 2026-04-27 08:02 | 59.41503 | 24.80640 | 160 ft | 12 kts | 94° |
| 2026-04-27 08:03 | 59.41500 | 24.80814 | 160 ft | 13 kts | 91° |
| 2026-04-27 08:03 | 59.41498 | 24.81001 | 160 ft | 14 kts | 91° |
| 2026-04-27 08:03 | 59.41496 | 24.81200 | 160 ft | 15 kts | 91° |
| 2026-04-27 08:03 | 59.41493 | 24.81412 | 160 ft | 16 kts | 91° |
| 2026-04-27 08:04 | 59.41492 | 24.81635 | 161 ft | 16 kts | 83° |
| 2026-04-27 08:04 | 59.41503 | 24.81779 | 160 ft | 16 kts | 85° |
| 2026-04-27 08:04 | 59.41501 | 24.82007 | 160 ft | 17 kts | 91° |
| 2026-04-27 08:04 | 59.41502 | 24.82243 | 160 ft | 18 kts | 84° |
| 2026-04-27 08:05 | 59.41503 | 24.82561 | 161 ft | 18 kts | 89° |
| 2026-04-27 08:05 | 59.41505 | 24.82810 | 160 ft | 19 kts | 89° |
| 2026-04-27 08:05 | 59.41505 | 24.82983 | 161 ft | 19 kts | 90° |
| 2026-04-27 08:05 | 59.41503 | 24.83247 | 160 ft | 20 kts | 91° |
| 2026-04-27 08:06 | 59.41499 | 24.83515 | 161 ft | 20 kts | 91° |
| 2026-04-27 08:06 | 59.41497 | 24.83795 | 160 ft | 21 kts | 90° |
| 2026-04-27 08:06 | 59.41497 | 24.84084 | 161 ft | 21 kts | 90° |
| 2026-04-27 08:06 | 59.41498 | 24.84380 | 160 ft | 22 kts | 89° |
| 2026-04-27 08:07 | 59.41502 | 24.84684 | 160 ft | 22 kts | 88° |
| 2026-04-27 08:07 | 59.41477 | 24.84974 | 161 ft | 21 kts | 135° |
| 2026-04-27 08:07 | 59.41341 | 24.84981 | 161 ft | 20 kts | 221° |
| 2026-04-27 08:07 | 59.41322 | 24.84712 | 160 ft | 26 kts | 271° |
| 2026-04-27 08:08 | 59.41323 | 24.84052 | 159 ft | 80 kts | 270° |
| 2026-04-27 08:08 | 59.41326 | 24.82527 | 160 ft | 142 kts | 270° |
| 2026-04-27 08:08 | 59.41322 | 24.80323 | 523 ft | 173 kts | 273° |
| 2026-04-27 08:08 | 59.41388 | 24.77949 | 1385 ft | 171 kts | 293° |
| 2026-04-27 08:09 | 59.42139 | 24.76462 | 2099 ft | 155 kts | 345° |
| 2026-04-27 08:09 | 59.43160 | 24.76080 | 2910 ft | 143 kts | 350° |
| 2026-04-27 08:09 | 59.44108 | 24.75761 | 3580 ft | 134 kts | 353° |
| 2026-04-27 08:09 | 59.44997 | 24.75463 | 4145 ft | 128 kts | 351° |
| 2026-04-27 08:10 | 59.45852 | 24.75136 | 4605 ft | 124 kts | 351° |
| 2026-04-27 08:10 | 59.46693 | 24.74801 | 4980 ft | 123 kts | 349° |
| 2026-04-27 08:10 | 59.47528 | 24.74452 | 5310 ft | 123 kts | 351° |
| 2026-04-27 08:10 | 59.48372 | 24.74125 | 5561 ft | 129 kts | 351° |
| 2026-04-27 08:11 | 59.49315 | 24.73785 | 5678 ft | 143 kts | 350° |
| 2026-04-27 08:11 | 59.50343 | 24.73385 | 5828 ft | 161 kts | 350° |
| 2026-04-27 08:11 | 59.51502 | 24.72969 | 6050 ft | 176 kts | 351° |
| 2026-04-27 08:11 | 59.52748 | 24.72485 | 6380 ft | 189 kts | 350° |
| 2026-04-27 08:12 | 59.54075 | 24.71982 | 6719 ft | 199 kts | 350° |
| 2026-04-27 08:12 | 59.55475 | 24.71448 | 7067 ft | 210 kts | 350° |
| 2026-04-27 08:12 | 59.56927 | 24.70892 | 7412 ft | 220 kts | 349° |
| 2026-04-27 08:12 | 59.58472 | 24.70298 | 7754 ft | 231 kts | 350° |
| 2026-04-27 08:13 | 59.60087 | 24.69678 | 8091 ft | 241 kts | 350° |
| 2026-04-27 08:13 | 59.61768 | 24.69045 | 8444 ft | 250 kts | 350° |
| 2026-04-27 08:13 | 59.63491 | 24.68398 | 8899 ft | 254 kts | 350° |
| 2026-04-27 08:13 | 59.65239 | 24.67729 | 9412 ft | 257 kts | 350° |
| 2026-04-27 08:14 | 59.66999 | 24.67030 | 9944 ft | 259 kts | 349° |
| 2026-04-27 08:14 | 59.68799 | 24.66332 | 10230 ft | 271 kts | 350° |
| 2026-04-27 08:14 | 59.70687 | 24.65636 | 10530 ft | 281 kts | 350° |
| 2026-04-27 08:14 | 59.72631 | 24.64896 | 10979 ft | 286 kts | 350° |
| 2026-04-27 08:15 | 59.74589 | 24.64143 | 11501 ft | 288 kts | 350° |
| 2026-04-27 08:15 | 59.76563 | 24.63380 | 12048 ft | 290 kts | 349° |
| 2026-04-27 08:15 | 59.78554 | 24.62595 | 12631 ft | 292 kts | 349° |
| 2026-04-27 08:15 | 59.80561 | 24.61801 | 13215 ft | 295 kts | 349° |
| 2026-04-27 08:16 | 59.82556 | 24.61005 | 13811 ft | 297 kts | 349° |
| 2026-04-27 08:16 | 59.84593 | 24.60195 | 14355 ft | 300 kts | 349° |
| 2026-04-27 08:16 | 59.86642 | 24.59378 | 14921 ft | 302 kts | 349° |
| 2026-04-27 08:16 | 59.88712 | 24.58563 | 15499 ft | 304 kts | 349° |
| 2026-04-27 08:17 | 59.90796 | 24.57757 | 16072 ft | 306 kts | 349° |
| 2026-04-27 08:17 | 59.92896 | 24.56914 | 16613 ft | 310 kts | 348° |
| 2026-04-27 08:17 | 59.95028 | 24.56058 | 17133 ft | 313 kts | 348° |
| 2026-04-27 08:17 | 59.97181 | 24.55201 | 17681 ft | 316 kts | 348° |
| 2026-04-27 08:18 | 59.99349 | 24.54353 | 18176 ft | 320 kts | 348° |
| 2026-04-27 08:18 | 60.01539 | 24.53482 | 18680 ft | 321 kts | 348° |
| 2026-04-27 08:18 | 60.03715 | 24.52627 | 19180 ft | 322 kts | 348° |
| 2026-04-27 08:18 | 60.05920 | 24.51758 | 19685 ft | 323 kts | 348° |
| 2026-04-27 08:19 | 60.08126 | 24.50880 | 20194 ft | 324 kts | 348° |
| 2026-04-27 08:19 | 60.10348 | 24.49996 | 20692 ft | 325 kts | 348° |
| 2026-04-27 08:19 | 60.12575 | 24.49111 | 21205 ft | 327 kts | 348° |
| 2026-04-27 08:19 | 60.14810 | 24.48223 | 21717 ft | 328 kts | 348° |
| 2026-04-27 08:20 | 60.17058 | 24.47331 | 22263 ft | 329 kts | 348° |
| 2026-04-27 08:20 | 60.19315 | 24.46433 | 22815 ft | 331 kts | 348° |
| 2026-04-27 08:20 | 60.21586 | 24.45533 | 23370 ft | 333 kts | 347° |
| 2026-04-27 08:20 | 60.23834 | 24.44631 | 23854 ft | 335 kts | 347° |
| 2026-04-27 08:21 | 60.26125 | 24.43719 | 24312 ft | 337 kts | 347° |
| 2026-04-27 08:21 | 60.28451 | 24.42792 | 24555 ft | 346 kts | 348° |
| 2026-04-27 08:21 | 60.30836 | 24.41879 | 24951 ft | 351 kts | 348° |
| 2026-04-27 08:21 | 60.33245 | 24.40935 | 25421 ft | 353 kts | 348° |
| 2026-04-27 08:22 | 60.35661 | 24.39994 | 25899 ft | 355 kts | 348° |
| 2026-04-27 08:22 | 60.38094 | 24.39036 | 26404 ft | 357 kts | 348° |
| 2026-04-27 08:22 | 60.40538 | 24.38063 | 26887 ft | 359 kts | 348° |
| 2026-04-27 08:22 | 60.42997 | 24.37096 | 27370 ft | 361 kts | 348° |
| 2026-04-27 08:23 | 60.45477 | 24.36116 | 27830 ft | 364 kts | 348° |
| 2026-04-27 08:23 | 60.47970 | 24.35128 | 28292 ft | 366 kts | 348° |
| 2026-04-27 08:23 | 60.50475 | 24.34138 | 28845 ft | 364 kts | 347° |
| 2026-04-27 08:23 | 60.52955 | 24.33156 | 29555 ft | 361 kts | 347° |
| 2026-04-27 08:24 | 60.55408 | 24.32168 | 30170 ft | 358 kts | 347° |
| 2026-04-27 08:24 | 60.57853 | 24.31169 | 30592 ft | 359 kts | 347° |
| 2026-04-27 08:24 | 60.60306 | 24.30172 | 30972 ft | 360 kts | 347° |
| 2026-04-27 08:24 | 60.62783 | 24.29187 | 31230 ft | 365 kts | 348° |
| 2026-04-27 08:25 | 60.65250 | 24.28220 | 31571 ft | 366 kts | 348° |
| 2026-04-27 08:25 | 60.67758 | 24.27236 | 31931 ft | 367 kts | 348° |
| 2026-04-27 08:25 | 60.70272 | 24.26246 | 32293 ft | 368 kts | 348° |
| 2026-04-27 08:25 | 60.72787 | 24.25256 | 32642 ft | 368 kts | 348° |
| 2026-04-27 08:26 | 60.75307 | 24.24268 | 32984 ft | 369 kts | 348° |
| 2026-04-27 08:26 | 60.77834 | 24.23274 | 33308 ft | 370 kts | 348° |
| 2026-04-27 08:26 | 60.80369 | 24.22291 | 33650 ft | 370 kts | 348° |
| 2026-04-27 08:26 | 60.82904 | 24.21304 | 33954 ft | 371 kts | 348° |
| 2026-04-27 08:27 | 60.85442 | 24.20315 | 34218 ft | 371 kts | 348° |
| 2026-04-27 08:27 | 60.87988 | 24.19336 | 34458 ft | 372 kts | 348° |
| 2026-04-27 08:27 | 60.90539 | 24.18359 | 34693 ft | 373 kts | 348° |
| 2026-04-27 08:27 | 60.93086 | 24.17376 | 34916 ft | 373 kts | 348° |
| 2026-04-27 08:28 | 60.95611 | 24.16397 | 35155 ft | 374 kts | 348° |
| 2026-04-27 08:28 | 60.98187 | 24.15414 | 35262 ft | 378 kts | 349° |
| 2026-04-27 08:28 | 61.00772 | 24.14430 | 35456 ft | 378 kts | 349° |
| 2026-04-27 08:28 | 61.03344 | 24.13443 | 35767 ft | 376 kts | 348° |
| 2026-04-27 08:29 | 61.05914 | 24.12455 | 35984 ft | 376 kts | 348° |
| 2026-04-27 08:29 | 61.08489 | 24.11468 | 36192 ft | 376 kts | 348° |
| 2026-04-27 08:29 | 61.11060 | 24.10477 | 36384 ft | 376 kts | 348° |
| 2026-04-27 08:29 | 61.13635 | 24.09494 | 36569 ft | 377 kts | 349° |
| 2026-04-27 08:30 | 61.16215 | 24.08510 | 36758 ft | 377 kts | 349° |
| 2026-04-27 08:30 | 61.18799 | 24.07514 | 36934 ft | 377 kts | 349° |
| 2026-04-27 08:30 | 61.21386 | 24.06520 | 37109 ft | 378 kts | 349° |
| 2026-04-27 08:30 | 61.23975 | 24.05527 | 37285 ft | 378 kts | 349° |
| 2026-04-27 08:31 | 61.26565 | 24.04541 | 37445 ft | 379 kts | 349° |
| 2026-04-27 08:31 | 61.29127 | 24.03563 | 37601 ft | 379 kts | 349° |
| 2026-04-27 08:31 | 61.31727 | 24.02569 | 37723 ft | 381 kts | 349° |
| 2026-04-27 08:31 | 61.34340 | 24.01578 | 37861 ft | 382 kts | 349° |
| 2026-04-27 08:32 | 61.36939 | 24.00592 | 38187 ft | 377 kts | 349° |
| 2026-04-27 08:32 | 61.39536 | 23.99607 | 38161 ft | 382 kts | 349° |
| 2026-04-27 08:32 | 61.44825 | 23.97622 | 38191 ft | 389 kts | 349° |
| 2026-04-27 08:33 | 61.50206 | 23.95636 | 38063 ft | 401 kts | 349° |
| 2026-04-27 08:33 | 61.55763 | 23.93583 | 38038 ft | 409 kts | 349° |
| 2026-04-27 08:34 | 61.61429 | 23.91474 | 38039 ft | 417 kts | 349° |
| 2026-04-27 08:34 | 61.67209 | 23.89324 | 38017 ft | 425 kts | 349° |
| 2026-04-27 08:35 | 61.73092 | 23.87130 | 38047 ft | 431 kts | 349° |
| 2026-04-27 08:35 | 61.78978 | 23.84919 | 38043 ft | 433 kts | 349° |
| 2026-04-27 08:36 | 61.84923 | 23.82682 | 38035 ft | 434 kts | 349° |
| 2026-04-27 08:36 | 61.90870 | 23.80433 | 38054 ft | 434 kts | 349° |
| 2026-04-27 08:37 | 61.96816 | 23.78176 | 38053 ft | 434 kts | 349° |
| 2026-04-27 08:37 | 62.02781 | 23.75908 | 38052 ft | 436 kts | 349° |
| 2026-04-27 08:38 | 62.08764 | 23.73611 | 38046 ft | 436 kts | 349° |
| 2026-04-27 08:38 | 62.14723 | 23.71332 | 38064 ft | 434 kts | 349° |
| 2026-04-27 08:39 | 62.20629 | 23.69053 | 38068 ft | 434 kts | 349° |
| 2026-04-27 08:39 | 62.26578 | 23.66743 | 38067 ft | 434 kts | 349° |
| 2026-04-27 08:40 | 62.32537 | 23.64432 | 38077 ft | 434 kts | 349° |
| 2026-04-27 08:40 | 62.38493 | 23.62105 | 38091 ft | 436 kts | 349° |
| 2026-04-27 08:41 | 62.44475 | 23.59772 | 38069 ft | 436 kts | 349° |
| 2026-04-27 08:41 | 62.50425 | 23.57427 | 38063 ft | 437 kts | 349° |
| 2026-04-27 08:42 | 62.56402 | 23.55075 | 38087 ft | 436 kts | 349° |
| 2026-04-27 08:42 | 62.62380 | 23.52704 | 38085 ft | 436 kts | 349° |
| 2026-04-27 08:43 | 62.68331 | 23.50332 | 38091 ft | 434 kts | 349° |
| 2026-04-27 08:43 | 62.74279 | 23.47946 | 38085 ft | 435 kts | 349° |
| 2026-04-27 08:44 | 62.80187 | 23.45564 | 38092 ft | 434 kts | 349° |
| 2026-04-27 08:44 | 62.86150 | 23.43169 | 38089 ft | 434 kts | 349° |
| 2026-04-27 08:45 | 62.92104 | 23.40768 | 38091 ft | 435 kts | 349° |
| 2026-04-27 08:45 | 62.98026 | 23.38356 | 38099 ft | 435 kts | 349° |
| 2026-04-27 08:46 | 63.03973 | 23.35943 | 38098 ft | 434 kts | 349° |
| 2026-04-27 08:46 | 63.09940 | 23.33488 | 38089 ft | 437 kts | 349° |
| 2026-04-27 08:47 | 63.15915 | 23.31024 | 38099 ft | 436 kts | 349° |
| 2026-04-27 08:47 | 63.21879 | 23.28562 | 38110 ft | 435 kts | 349° |
| 2026-04-27 08:48 | 63.27823 | 23.26100 | 38099 ft | 434 kts | 349° |
| 2026-04-27 08:48 | 63.33767 | 23.23628 | 38105 ft | 434 kts | 349° |
| 2026-04-27 08:49 | 63.39666 | 23.21148 | 38105 ft | 434 kts | 349° |
| 2026-04-27 08:49 | 63.45640 | 23.18642 | 38112 ft | 436 kts | 349° |
| 2026-04-27 08:50 | 63.51612 | 23.16125 | 38102 ft | 436 kts | 349° |
| 2026-04-27 08:50 | 63.57558 | 23.13613 | 38102 ft | 436 kts | 349° |
| 2026-04-27 08:51 | 63.62521 | 23.11515 | 38104 ft | 436 kts | 349° |
| 2026-04-27 08:51 | 63.68485 | 23.08975 | 38104 ft | 436 kts | 349° |
| 2026-04-27 08:52 | 63.74454 | 23.06419 | 38105 ft | 436 kts | 349° |
| 2026-04-27 08:52 | 63.80431 | 23.03827 | 38115 ft | 437 kts | 349° |
| 2026-04-27 08:53 | 63.86419 | 23.01242 | 38097 ft | 438 kts | 349° |
| 2026-04-27 08:53 | 63.92399 | 22.98645 | 38099 ft | 438 kts | 349° |
| 2026-04-27 08:54 | 63.98381 | 22.96051 | 38119 ft | 438 kts | 349° |
| 2026-04-27 08:54 | 64.04368 | 22.93431 | 38130 ft | 437 kts | 349° |
| 2026-04-27 08:55 | 64.10322 | 22.90815 | 38130 ft | 437 kts | 349° |
| 2026-04-27 08:55 | 64.16326 | 22.88158 | 38115 ft | 439 kts | 348° |
| 2026-04-27 08:56 | 64.22336 | 22.85507 | 38115 ft | 439 kts | 348° |
| 2026-04-27 08:56 | 64.28306 | 22.82835 | 38117 ft | 439 kts | 348° |
| 2026-04-27 08:57 | 64.37274 | 22.78811 | 38115 ft | 437 kts | 349° |
| 2026-04-27 08:58 | 64.43252 | 22.76134 | 38113 ft | 437 kts | 349° |
| 2026-04-27 08:58 | 64.49231 | 22.73381 | 38129 ft | 437 kts | 348° |
| 2026-04-27 08:59 | 64.55180 | 22.70629 | 38119 ft | 439 kts | 348° |
| 2026-04-27 08:59 | 64.61176 | 22.67864 | 38125 ft | 439 kts | 349° |
| 2026-04-27 09:00 | 64.67174 | 22.65116 | 38129 ft | 439 kts | 348° |
| 2026-04-27 09:00 | 64.73129 | 22.62375 | 38126 ft | 438 kts | 348° |
| 2026-04-27 09:01 | 64.79115 | 22.59599 | 38129 ft | 439 kts | 348° |
| 2026-04-27 09:01 | 64.85109 | 22.56799 | 38129 ft | 439 kts | 348° |
| 2026-04-27 09:02 | 64.91097 | 22.54007 | 38124 ft | 438 kts | 348° |
| 2026-04-27 09:02 | 64.97079 | 22.51192 | 38122 ft | 438 kts | 348° |
| 2026-04-27 09:03 | 65.03056 | 22.48338 | 38129 ft | 438 kts | 348° |
| 2026-04-27 09:03 | 65.08997 | 22.45538 | 38128 ft | 438 kts | 348° |
| 2026-04-27 09:04 | 65.15013 | 22.42695 | 38119 ft | 438 kts | 348° |
| 2026-04-27 09:04 | 65.20970 | 22.39883 | 38133 ft | 438 kts | 348° |
| 2026-04-27 09:05 | 65.26955 | 22.37016 | 38125 ft | 439 kts | 348° |
| 2026-04-27 09:05 | 65.32953 | 22.34133 | 38124 ft | 439 kts | 348° |
| 2026-04-27 09:06 | 65.38911 | 22.31258 | 38123 ft | 439 kts | 348° |
| 2026-04-27 09:06 | 65.44904 | 22.28337 | 38123 ft | 438 kts | 348° |
| 2026-04-27 09:07 | 65.50863 | 22.25433 | 38120 ft | 437 kts | 348° |
| 2026-04-27 09:07 | 65.56835 | 22.22507 | 38139 ft | 437 kts | 348° |
| 2026-04-27 09:08 | 65.62809 | 22.19548 | 38133 ft | 438 kts | 348° |
| 2026-04-27 09:08 | 65.68753 | 22.16605 | 38128 ft | 439 kts | 348° |
| 2026-04-27 09:09 | 65.74750 | 22.13620 | 38137 ft | 439 kts | 348° |
| 2026-04-27 09:09 | 65.80737 | 22.10629 | 38133 ft | 439 kts | 348° |
| 2026-04-27 09:10 | 65.86719 | 22.07621 | 38130 ft | 439 kts | 348° |
| 2026-04-27 09:10 | 65.92663 | 22.04624 | 38137 ft | 438 kts | 348° |
| 2026-04-27 09:11 | 65.98644 | 22.01580 | 38125 ft | 440 kts | 348° |
| 2026-04-27 09:11 | 66.04633 | 21.98530 | 38142 ft | 438 kts | 348° |
| 2026-04-27 09:12 | 66.10604 | 21.95458 | 38137 ft | 438 kts | 348° |
| 2026-04-27 09:12 | 66.16569 | 21.92390 | 38141 ft | 438 kts | 348° |
| 2026-04-27 09:13 | 66.22539 | 21.89286 | 38143 ft | 438 kts | 348° |
| 2026-04-27 09:13 | 66.28483 | 21.86234 | 38141 ft | 438 kts | 348° |
| 2026-04-27 09:14 | 66.34451 | 21.83104 | 38138 ft | 438 kts | 348° |
| 2026-04-27 09:14 | 66.40412 | 21.79955 | 38154 ft | 438 kts | 348° |
| 2026-04-27 09:15 | 66.46381 | 21.76791 | 38151 ft | 438 kts | 347° |
| 2026-04-27 09:15 | 66.52346 | 21.73613 | 38149 ft | 438 kts | 348° |
| 2026-04-27 09:16 | 66.58272 | 21.70475 | 38151 ft | 438 kts | 348° |
| 2026-04-27 09:16 | 66.64217 | 21.67304 | 38143 ft | 435 kts | 347° |
| 2026-04-27 09:17 | 66.70138 | 21.64098 | 38149 ft | 435 kts | 347° |
| 2026-04-27 09:17 | 66.76098 | 21.60846 | 38161 ft | 437 kts | 347° |
| 2026-04-27 09:18 | 66.82057 | 21.57635 | 38160 ft | 437 kts | 347° |
| 2026-04-27 09:18 | 66.88015 | 21.54391 | 38163 ft | 437 kts | 348° |
| 2026-04-27 09:19 | 66.93930 | 21.51150 | 38154 ft | 437 kts | 347° |
| 2026-04-27 09:19 | 66.99884 | 21.47879 | 38150 ft | 437 kts | 348° |
| 2026-04-27 09:20 | 67.05843 | 21.44588 | 38149 ft | 437 kts | 347° |
| 2026-04-27 09:20 | 67.11757 | 21.41301 | 38147 ft | 439 kts | 347° |
| 2026-04-27 09:21 | 67.17729 | 21.37961 | 38151 ft | 439 kts | 347° |
| 2026-04-27 09:21 | 67.23685 | 21.34609 | 38159 ft | 437 kts | 347° |
| 2026-04-27 09:22 | 67.29630 | 21.31206 | 38148 ft | 437 kts | 347° |
| 2026-04-27 09:22 | 67.35588 | 21.27827 | 38155 ft | 438 kts | 347° |
| 2026-04-27 09:23 | 67.41536 | 21.24428 | 38167 ft | 438 kts | 347° |
| 2026-04-27 09:23 | 67.47448 | 21.21030 | 38194 ft | 438 kts | 347° |
| 2026-04-27 09:24 | 67.53417 | 21.17605 | 38173 ft | 439 kts | 347° |
| 2026-04-27 09:24 | 67.59394 | 21.14124 | 38180 ft | 439 kts | 347° |
| 2026-04-27 09:25 | 67.65364 | 21.10659 | 38181 ft | 439 kts | 347° |
| 2026-04-27 09:25 | 67.71288 | 21.07183 | 38180 ft | 439 kts | 347° |
| 2026-04-27 09:26 | 67.77259 | 21.03677 | 38181 ft | 439 kts | 347° |
| 2026-04-27 09:26 | 67.83204 | 21.00147 | 38197 ft | 436 kts | 347° |
| 2026-04-27 09:27 | 67.89150 | 20.96617 | 38189 ft | 438 kts | 347° |
| 2026-04-27 09:27 | 67.95102 | 20.93071 | 38185 ft | 439 kts | 347° |
| 2026-04-27 09:28 | 68.01021 | 20.89523 | 38197 ft | 438 kts | 347° |
| 2026-04-27 09:28 | 68.06975 | 20.85924 | 38194 ft | 438 kts | 347° |
| 2026-04-27 09:29 | 68.12927 | 20.82322 | 38193 ft | 438 kts | 347° |
| 2026-04-27 09:29 | 68.18874 | 20.78696 | 38198 ft | 438 kts | 347° |
| 2026-04-27 09:30 | 68.24832 | 20.75034 | 38202 ft | 440 kts | 347° |
| 2026-04-27 09:30 | 68.30799 | 20.71333 | 38201 ft | 440 kts | 347° |
| 2026-04-27 09:31 | 68.36761 | 20.67620 | 38197 ft | 440 kts | 347° |
| 2026-04-27 09:31 | 68.42711 | 20.63909 | 38217 ft | 437 kts | 347° |
| 2026-04-27 09:32 | 68.48612 | 20.60203 | 38199 ft | 438 kts | 346° |
| 2026-04-27 09:32 | 68.54546 | 20.56484 | 38207 ft | 438 kts | 347° |
| 2026-04-27 09:33 | 68.60484 | 20.52716 | 38214 ft | 437 kts | 346° |
| 2026-04-27 09:33 | 68.66429 | 20.48882 | 38220 ft | 440 kts | 346° |
| 2026-04-27 09:34 | 68.72358 | 20.45119 | 38198 ft | 440 kts | 346° |
| 2026-04-27 09:34 | 68.78255 | 20.40739 | 38213 ft | 439 kts | 333° |
| 2026-04-27 09:34 | 68.80730 | 20.35821 | 38262 ft | 442 kts | 315° |
| 2026-04-27 09:35 | 68.82597 | 20.29032 | 38310 ft | 445 kts | 304° |
| 2026-04-27 09:35 | 68.85920 | 20.14520 | 38196 ft | 445 kts | 304° |
| 2026-04-27 09:36 | 68.89248 | 20.00151 | 38200 ft | 443 kts | 305° |
| 2026-04-27 09:36 | 68.92587 | 19.85782 | 38192 ft | 443 kts | 305° |
| 2026-04-27 09:37 | 68.96562 | 19.73042 | 38256 ft | 438 kts | 329° |
| 2026-04-27 09:37 | 69.01822 | 19.64657 | 38225 ft | 437 kts | 331° |
| 2026-04-27 09:38 | 69.07121 | 19.56270 | 38211 ft | 437 kts | 331° |
| 2026-04-27 09:38 | 69.12421 | 19.47852 | 38212 ft | 439 kts | 331° |
| 2026-04-27 09:39 | 69.16838 | 19.40798 | 38268 ft | 439 kts | 330° |
| 2026-04-27 09:39 | 69.22827 | 19.30681 | 38228 ft | 414 kts | 329° |
| 2026-04-27 09:40 | 69.26905 | 19.23763 | 38221 ft | 409 kts | 330° |
| 2026-04-27 09:40 | 69.31877 | 19.15553 | 38252 ft | 418 kts | 330° |
| 2026-04-27 09:41 | 69.36922 | 19.07213 | 38299 ft | 426 kts | 333° |
| 2026-04-27 09:41 | 69.39689 | 19.04106 | 37513 ft | 433 kts | 348° |
| 2026-04-27 09:41 | 69.42689 | 19.03992 | 37063 ft | 424 kts | 8° |
| 2026-04-27 09:41 | 69.45497 | 19.06198 | 36568 ft | 420 kts | 23° |
| 2026-04-27 09:42 | 69.47916 | 19.10938 | 35849 ft | 426 kts | 41° |
| 2026-04-27 09:42 | 69.49709 | 19.17657 | 35205 ft | 431 kts | 59° |
| 2026-04-27 09:42 | 69.50583 | 19.25876 | 34471 ft | 440 kts | 81° |
| 2026-04-27 09:42 | 69.50387 | 19.34636 | 33723 ft | 448 kts | 102° |
| 2026-04-27 09:43 | 69.49120 | 19.42712 | 33273 ft | 444 kts | 116° |
| 2026-04-27 09:43 | 69.47764 | 19.50452 | 33018 ft | 428 kts | 116° |
| 2026-04-27 09:43 | 69.45973 | 19.57011 | 32877 ft | 418 kts | 137° |
| 2026-04-27 09:43 | 69.43788 | 19.62294 | 32583 ft | 405 kts | 133° |
| 2026-04-27 09:44 | 69.41634 | 19.67362 | 31940 ft | 406 kts | 147° |
| 2026-04-27 09:44 | 69.38991 | 19.70346 | 30754 ft | 424 kts | 171° |
| 2026-04-27 09:44 | 69.36034 | 19.70339 | 29489 ft | 431 kts | 193° |
| 2026-04-27 09:44 | 69.33189 | 19.67580 | 28227 ft | 434 kts | 209° |
| 2026-04-27 09:45 | 69.30549 | 19.63379 | 26974 ft | 438 kts | 213° |
| 2026-04-27 09:45 | 69.27894 | 19.59012 | 25693 ft | 444 kts | 211° |
| 2026-04-27 09:45 | 69.25191 | 19.54917 | 25139 ft | 433 kts | 209° |
| 2026-04-27 09:45 | 69.22539 | 19.51095 | 24505 ft | 424 kts | 208° |
| 2026-04-27 09:46 | 69.19933 | 19.47425 | 23954 ft | 414 kts | 207° |
| 2026-04-27 09:46 | 69.17378 | 19.43916 | 23420 ft | 402 kts | 208° |
| 2026-04-27 09:46 | 69.15185 | 19.39424 | 23050 ft | 383 kts | 229° |
| 2026-04-27 09:46 | 69.13858 | 19.33171 | 22691 ft | 365 kts | 254° |
| 2026-04-27 09:47 | 69.13614 | 19.26289 | 22406 ft | 351 kts | 279° |
| 2026-04-27 09:47 | 69.14447 | 19.20060 | 22231 ft | 346 kts | 305° |
| 2026-04-27 09:47 | 69.16188 | 19.15476 | 22035 ft | 345 kts | 331° |
| 2026-04-27 09:47 | 69.18475 | 19.13548 | 21849 ft | 347 kts | 357° |
| 2026-04-27 09:48 | 69.20847 | 19.14655 | 21607 ft | 349 kts | 21° |
| 2026-04-27 09:48 | 69.23009 | 19.17805 | 21157 ft | 351 kts | 28° |
| 2026-04-27 09:48 | 69.25149 | 19.21086 | 20701 ft | 348 kts | 25° |
| 2026-04-27 09:48 | 69.27363 | 19.23791 | 20270 ft | 343 kts | 19° |
| 2026-04-27 09:49 | 69.29644 | 19.25631 | 19819 ft | 339 kts | 11° |
| 2026-04-27 09:49 | 69.31960 | 19.26808 | 19377 ft | 336 kts | 8° |
| 2026-04-27 09:49 | 69.34265 | 19.27802 | 18921 ft | 333 kts | 7° |
| 2026-04-27 09:49 | 69.36527 | 19.28635 | 18440 ft | 332 kts | 6° |
| 2026-04-27 09:50 | 69.38806 | 19.29398 | 18028 ft | 326 kts | 5° |
| 2026-04-27 09:50 | 69.41049 | 19.30052 | 17660 ft | 322 kts | 5° |
| 2026-04-27 09:50 | 69.43282 | 19.30658 | 17185 ft | 321 kts | 4° |
| 2026-04-27 09:50 | 69.45493 | 19.31227 | 16797 ft | 318 kts | 4° |
| 2026-04-27 09:51 | 69.47694 | 19.31752 | 16389 ft | 315 kts | 3° |
| 2026-04-27 09:51 | 69.49875 | 19.32229 | 15972 ft | 312 kts | 3° |
| 2026-04-27 09:51 | 69.52002 | 19.32681 | 15547 ft | 310 kts | 3° |
| 2026-04-27 09:51 | 69.54137 | 19.33131 | 15151 ft | 306 kts | 2° |
| 2026-04-27 09:52 | 69.56245 | 19.33537 | 14754 ft | 299 kts | 2° |
| 2026-04-27 09:52 | 69.58303 | 19.33934 | 14355 ft | 293 kts | 2° |
| 2026-04-27 09:52 | 69.60319 | 19.34300 | 13973 ft | 287 kts | 2° |
| 2026-04-27 09:52 | 69.62297 | 19.34647 | 13554 ft | 281 kts | 2° |
| 2026-04-27 09:53 | 69.64219 | 19.34968 | 13251 ft | 273 kts | 1° |
| 2026-04-27 09:53 | 69.66108 | 19.35265 | 12870 ft | 269 kts | 1° |
| 2026-04-27 09:53 | 69.67972 | 19.35449 | 12208 ft | 274 kts | 357° |
| 2026-04-27 09:53 | 69.69894 | 19.35249 | 11344 ft | 275 kts | 358° |
| 2026-04-27 09:54 | 69.71795 | 19.35335 | 10440 ft | 272 kts | 0° |
| 2026-04-27 09:54 | 69.73683 | 19.35582 | 9414 ft | 271 kts | 1° |
| 2026-04-27 09:54 | 69.75560 | 19.35899 | 8365 ft | 270 kts | 2° |
| 2026-04-27 09:54 | 69.77436 | 19.36268 | 7301 ft | 270 kts | 2° |
| 2026-04-27 09:55 | 69.79300 | 19.36644 | 6636 ft | 258 kts | 2° |
| 2026-04-27 09:55 | 69.80925 | 19.36919 | 7413 ft | 223 kts | 0° |
| 2026-04-27 09:55 | 69.83779 | 19.37357 | 8308 ft | 228 kts | 1° |
| 2026-04-27 09:56 | 69.85434 | 19.37707 | 7487 ft | 247 kts | 2° |
| 2026-04-27 09:56 | 69.87197 | 19.38051 | 6644 ft | 260 kts | 1° |
| 2026-04-27 09:56 | 69.88970 | 19.38380 | 6738 ft | 239 kts | 0° |
| 2026-04-27 09:56 | 69.90474 | 19.37595 | 7726 ft | 216 kts | 334° |
| 2026-04-27 09:57 | 69.91706 | 19.34638 | 6977 ft | 251 kts | 307° |
| 2026-04-27 09:57 | 69.92265 | 19.29629 | 6372 ft | 259 kts | 281° |
| 2026-04-27 09:57 | 69.92582 | 19.24772 | 6235 ft | 235 kts | 287° |
| 2026-04-27 09:57 | 69.92959 | 19.20449 | 6194 ft | 213 kts | 288° |
| 2026-04-27 09:58 | 69.93316 | 19.16418 | 6160 ft | 194 kts | 287° |
| 2026-04-27 09:58 | 69.93411 | 19.12524 | 5783 ft | 200 kts | 264° |
| 2026-04-27 09:58 | 69.92884 | 19.08867 | 5689 ft | 195 kts | 239° |
| 2026-04-27 09:58 | 69.91874 | 19.06290 | 5543 ft | 197 kts | 210° |
| 2026-04-27 09:59 | 69.90545 | 19.05239 | 5395 ft | 199 kts | 191° |
| 2026-04-27 09:59 | 69.89165 | 19.04848 | 5217 ft | 199 kts | 188° |
| 2026-04-27 09:59 | 69.87787 | 19.04711 | 5073 ft | 194 kts | 182° |
| 2026-04-27 09:59 | 69.86532 | 19.04229 | 4926 ft | 174 kts | 199° |
| 2026-04-27 10:00 | 69.85378 | 19.03293 | 4688 ft | 174 kts | 197° |
| 2026-04-27 10:00 | 69.84178 | 19.02565 | 4365 ft | 176 kts | 194° |
| 2026-04-27 10:00 | 69.82988 | 19.01779 | 4010 ft | 174 kts | 197° |
| 2026-04-27 10:00 | 69.81823 | 19.00941 | 3668 ft | 170 kts | 196° |
| 2026-04-27 10:01 | 69.80676 | 19.00192 | 3371 ft | 167 kts | 195° |
| 2026-04-27 10:01 | 69.79553 | 18.99445 | 3053 ft | 164 kts | 196° |
| 2026-04-27 10:01 | 69.78465 | 18.98683 | 2750 ft | 162 kts | 196° |
| 2026-04-27 10:01 | 69.77368 | 18.97950 | 2438 ft | 161 kts | 195° |
| 2026-04-27 10:02 | 69.76276 | 18.97232 | 2129 ft | 160 kts | 195° |
| 2026-04-27 10:02 | 69.75191 | 18.96497 | 1822 ft | 160 kts | 196° |
| 2026-04-27 10:02 | 69.74098 | 18.95740 | 1511 ft | 162 kts | 196° |
| 2026-04-27 10:02 | 69.73008 | 18.95013 | 1174 ft | 158 kts | 194° |
| 2026-04-27 10:03 | 69.71955 | 18.94328 | 858 ft | 152 kts | 194° |
| 2026-04-27 10:03 | 69.70930 | 18.93686 | 464 ft | 151 kts | 197° |
| 2026-04-27 10:03 | 69.69922 | 18.93009 | 160 ft | 147 kts | 199° |
| 2026-04-27 10:03 | 69.68961 | 18.92279 | 23 ft | 134 kts | 195° |
| 2026-04-27 10:04 | 69.68178 | 18.91759 | 27 ft | 95 kts | 191° |
| 2026-04-27 10:04 | 69.67764 | 18.91501 | 38 ft | 21 kts | 193° |
| 2026-04-27 10:04 | 69.67732 | 18.91368 | 38 ft | 7 kts | 276° |
| 2026-04-27 10:04 | 69.67742 | 18.91234 | 36 ft | 7 kts | 282° |
| 2026-04-27 10:05 | 69.67769 | 18.91139 | 38 ft | 7 kts | 335° |
| 2026-04-27 10:05 | 69.67830 | 18.91165 | 37 ft | 11 kts | 14° |
| 2026-04-27 10:05 | 69.67875 | 18.91131 | 35 ft | 7 kts | 297° |
| 2026-04-27 10:05 | 69.67885 | 18.91025 | 34 ft | 4 kts | 282° |
| 2026-04-27 10:06 | 69.67891 | 18.90932 | 35 ft | 6 kts | 282° |
| 2026-04-27 10:06 | 69.67895 | 18.90889 | 35 ft | 1 kts | 283° |
| 2026-04-27 10:06 | 69.67896 | 18.90874 | 35 ft | 1 kts | 283° |
| 2026-04-27 10:06 | 69.67897 | 18.90868 | 35 ft | 0 kts | 283° |